Miley Memorial Field Big Piney US
ICAO: KBPI
IATA: BPI
Category: Medium
Scheduled Services: No

Elevation: 6990 ft
TransAlt. 18000 ft.

Airport Communications:
ASOS:135.225
CASPER RDO:122.3
CTAF/UNICOM:122.8

KBPI Zoom In..

Runways:

(A) RW 08 length 3301 ft width 60 ft
---- / hdg 77

(B) RW 13 length 6802 ft width 75 ft
---- / hdg 132

(C) RW 26 length 3301 ft width 60 ft
---- / hdg 257

(D) RW 31 length 6802 ft width 75 ft
---- / hdg 312

Location; KBPI
Day. 15 / Time. 21.53 Zulu
* Altimeter: 30.27
* Temperature: 29° c. 84.2°f.
* Wind from: 240° Speed 09 kn.
Dewpoint: 06° c.
Visibility: 10 Statute Miles.
Clouds: Clear (automated report).

KBPI 152153Z AUTO 24009KT 10SM CLR 29/06 A3027 RMK AO2 SLP148 T02940056


Wind From 240°
Speed 09 kn.

 
 
jpsmedia.com for Web Design worldairports.se 2018   terms of use